createdAt,value
2023-05-01T00:00:29.047Z,0
2023-05-01T00:03:29.521Z,0
2023-05-01T00:06:29.230Z,0
2023-05-01T00:09:28.997Z,0
2023-05-01T00:12:29.133Z,0
2023-05-01T00:15:29.131Z,0
2023-05-01T00:18:29.126Z,0
2023-05-01T00:21:28.997Z,0
2023-05-01T00:24:29.132Z,0.2
2023-05-01T00:27:29.015Z,0.3
2023-05-01T00:30:29.102Z,0.35
2023-05-01T00:33:29.169Z,0.3
2023-05-01T00:36:29.108Z,0.4
2023-05-01T00:39:29.144Z,0.45
2023-05-01T00:42:29.097Z,0.45
2023-05-01T00:45:29.127Z,0.5
2023-05-01T00:48:29.201Z,0.5
2023-05-01T00:51:29.176Z,0.8
2023-05-01T00:54:29.141Z,0.55
2023-05-01T00:57:29.079Z,0.4
2023-05-01T01:00:29.167Z,0.35
2023-05-01T01:03:29.137Z,0.5
2023-05-01T01:06:29.146Z,0.4
2023-05-01T01:09:29.191Z,0.5
2023-05-01T01:12:29.217Z,0.55
2023-05-01T01:15:29.179Z,0.3
2023-05-01T01:18:29.153Z,0.4
2023-05-01T01:21:29.234Z,0
2023-05-01T01:24:29.141Z,0
2023-05-01T01:27:29.032Z,0
2023-05-01T01:30:29.087Z,0
2023-05-01T01:33:29.251Z,0
2023-05-01T01:36:29.893Z,0
2023-05-01T01:39:29.038Z,0.2
2023-05-01T01:42:29.218Z,0
2023-05-01T01:45:29.193Z,0.2
2023-05-01T01:48:29.176Z,0
2023-05-01T01:51:29.185Z,0
2023-05-01T01:54:29.272Z,0.3
2023-05-01T01:57:29.160Z,0.2
2023-05-01T02:00:29.162Z,0
2023-05-01T02:03:29.327Z,0
2023-05-01T02:06:29.340Z,0
2023-05-01T02:09:29.221Z,0
2023-05-01T02:12:29.164Z,0
2023-05-01T02:15:29.124Z,0
2023-05-01T02:18:29.117Z,0
2023-05-01T02:21:29.221Z,0
2023-05-01T02:24:29.246Z,0
2023-05-01T02:27:29.183Z,0
2023-05-01T02:30:29.129Z,0
2023-05-01T02:33:29.148Z,0
2023-05-01T02:36:29.136Z,0.35
2023-05-01T02:39:29.174Z,0.1
2023-05-01T02:42:29.151Z,0.3
2023-05-01T02:45:29.244Z,0.6
2023-05-01T02:48:29.249Z,0.4
2023-05-01T02:51:29.173Z,0.35
2023-05-01T02:54:29.154Z,0.25
2023-05-01T02:57:29.163Z,0.1
2023-05-01T03:00:29.214Z,0.35
2023-05-01T03:03:29.160Z,0.75
2023-05-01T03:06:29.406Z,0.6
2023-05-01T03:09:29.156Z,0.6
2023-05-01T03:12:29.225Z,0.6
2023-05-01T03:15:29.224Z,0.6
2023-05-01T03:18:29.236Z,0.55
2023-05-01T03:21:29.212Z,0.7
2023-05-01T03:24:29.349Z,0.8
2023-05-01T03:27:29.196Z,0.45
2023-05-01T03:30:29.179Z,0.55
2023-05-01T03:33:29.319Z,0.7
2023-05-01T03:36:29.266Z,1
2023-05-01T03:39:29.281Z,0.65
2023-05-01T03:42:29.271Z,0.6
2023-05-01T03:45:29.165Z,0.75
2023-05-01T03:48:29.212Z,0.75
2023-05-01T03:51:29.286Z,0.75
2023-05-01T03:54:29.298Z,0.45
2023-05-01T03:57:29.363Z,0.9
2023-05-01T04:00:29.215Z,0.5
2023-05-01T04:03:29.774Z,0.6
2023-05-01T04:06:29.444Z,0.6
2023-05-01T04:09:29.215Z,0.75
2023-05-01T04:12:29.309Z,0.65
2023-05-01T04:15:29.343Z,0.85
2023-05-01T04:18:29.373Z,0.15
2023-05-01T04:21:29.288Z,0.3
2023-05-01T04:24:29.339Z,0.95
2023-05-01T04:27:29.234Z,0.55
2023-05-01T04:30:29.281Z,0.6
2023-05-01T04:33:29.422Z,0.35
2023-05-01T04:36:29.366Z,0.8
2023-05-01T04:39:29.308Z,0.6
2023-05-01T04:42:29.382Z,0.95
2023-05-01T04:45:29.331Z,0.85
2023-05-01T04:48:29.255Z,0.8
2023-05-01T04:51:29.323Z,0.75
2023-05-01T04:54:29.293Z,0.75
2023-05-01T04:57:29.316Z,0.7
2023-05-01T05:00:29.339Z,0.7
2023-05-01T05:03:29.459Z,0.75
2023-05-01T05:06:29.478Z,0.85
2023-05-01T05:09:29.322Z,0.6
2023-05-01T05:12:29.345Z,0.45
2023-05-01T05:15:29.322Z,0.6
2023-05-01T05:18:29.387Z,0.65
2023-05-01T05:21:29.388Z,0.85
2023-05-01T05:24:29.394Z,0.7
2023-05-01T05:27:29.379Z,0.65
2023-05-01T05:30:29.370Z,0.65
2023-05-01T05:33:29.252Z,0.8
2023-05-01T05:36:29.416Z,0.8
2023-05-01T05:39:29.381Z,0.5
2023-05-01T05:42:29.780Z,0.85
2023-05-01T05:45:29.794Z,0.8
2023-05-01T05:48:29.457Z,0.55
2023-05-01T05:51:29.433Z,1
2023-05-01T05:54:29.376Z,1.25
2023-05-01T05:57:29.344Z,0.95
2023-05-01T06:00:29.416Z,0.9
2023-05-01T06:03:29.848Z,0.75
2023-05-01T06:06:29.367Z,1.15
2023-05-01T06:09:29.469Z,0.8
2023-05-01T06:12:29.846Z,1
2023-05-01T06:15:29.547Z,1.2
2023-05-01T06:18:29.350Z,0.95
2023-05-01T06:21:29.436Z,1
2023-05-01T06:24:29.602Z,0.7
2023-05-01T06:27:29.403Z,0.55
2023-05-01T06:30:29.421Z,0.55
2023-05-01T06:33:29.414Z,0.7
2023-05-01T06:36:29.466Z,0.5
2023-05-01T06:39:29.337Z,0.45
2023-05-01T06:42:29.460Z,0.65
2023-05-01T06:45:29.449Z,0.9
2023-05-01T06:48:29.427Z,0.55
2023-05-01T06:51:29.465Z,0.45
2023-05-01T06:54:29.495Z,0.7
2023-05-01T06:57:29.402Z,0.45
2023-05-01T07:00:29.480Z,0.4
2023-05-01T07:03:29.506Z,0.55
2023-05-01T07:06:29.672Z,0.85
2023-05-01T07:09:29.475Z,1
2023-05-01T07:12:29.464Z,0.65
2023-05-01T07:15:29.475Z,0.75
2023-05-01T07:18:29.542Z,0.8
2023-05-01T07:21:29.424Z,0.75
2023-05-01T07:24:29.365Z,1
2023-05-01T07:27:29.380Z,0.75
2023-05-01T07:30:29.400Z,0.6
2023-05-01T07:33:29.444Z,0.6
2023-05-01T07:36:29.514Z,0.65
2023-05-01T07:39:29.542Z,1.15
2023-05-01T07:42:29.534Z,0.85
2023-05-01T07:45:29.506Z,0.75
2023-05-01T07:48:29.541Z,0.95
2023-05-01T07:51:29.607Z,0.7
2023-05-01T07:54:29.530Z,0.6
2023-05-01T07:57:29.521Z,0.5
2023-05-01T08:00:29.514Z,0.35
2023-05-01T08:03:30.112Z,0.6
2023-05-01T08:06:29.678Z,0.5
2023-05-01T08:09:29.522Z,0.4
2023-05-01T08:12:29.519Z,0.45
2023-05-01T08:15:29.506Z,0.25
2023-05-01T08:18:29.525Z,0.3
2023-05-01T08:21:29.505Z,0.15
2023-05-01T08:24:29.609Z,0.55
2023-05-01T08:27:29.473Z,0.45
2023-05-01T08:30:29.595Z,0.4
2023-05-01T08:33:29.476Z,0.35
2023-05-01T08:36:29.609Z,0.5
2023-05-01T08:39:29.528Z,0.45
2023-05-01T08:42:32.396Z,0.55
2023-05-01T08:45:29.430Z,0.75
2023-05-01T08:48:29.524Z,0.7
2023-05-01T08:51:29.490Z,0.4
2023-05-01T08:54:29.505Z,0.4
2023-05-01T08:57:29.511Z,0.55
2023-05-01T09:00:29.545Z,0.4
2023-05-01T09:03:29.937Z,0.45
2023-05-01T09:06:29.942Z,0.45
2023-05-01T09:09:29.547Z,0.25
2023-05-01T09:12:29.555Z,0.5
2023-05-01T09:15:29.610Z,0.4
2023-05-01T09:18:29.548Z,0.3
2023-05-01T09:21:29.653Z,0.4
2023-05-01T09:24:29.585Z,0.7
2023-05-01T09:27:29.540Z,0.5
2023-05-01T09:30:29.638Z,0.25
2023-05-01T09:33:29.554Z,0.6
2023-05-01T09:36:29.632Z,0.9
2023-05-01T09:39:29.648Z,1.05
2023-05-01T09:42:29.621Z,1.2
2023-05-01T09:45:29.565Z,1.15
2023-05-01T09:48:29.607Z,0.75
2023-05-01T09:51:29.677Z,0.7
2023-05-01T09:54:29.653Z,0.85
2023-05-01T09:57:29.634Z,0.35
2023-05-01T10:00:29.584Z,0.5
2023-05-01T10:03:29.761Z,0.85
2023-05-01T10:06:29.893Z,0.6
2023-05-01T10:09:29.650Z,0.4
2023-05-01T10:12:29.652Z,0.6
2023-05-01T10:15:29.603Z,0.65
2023-05-01T10:18:29.563Z,0.4
2023-05-01T10:21:29.697Z,0.9
2023-05-01T10:24:29.595Z,0.85
2023-05-01T10:27:29.596Z,0.8
2023-05-01T10:30:29.664Z,1.15
2023-05-01T10:33:29.610Z,1.1
2023-05-01T10:36:29.733Z,0.65
2023-05-01T10:39:29.681Z,0.95
2023-05-01T10:42:29.714Z,1.3
2023-05-01T10:45:29.734Z,1.05
2023-05-01T10:48:29.633Z,0.3
2023-05-01T10:51:29.929Z,1.75
2023-05-01T10:54:29.645Z,0.65
2023-05-01T10:57:29.725Z,1.1
2023-05-01T11:00:29.633Z,1.05
2023-05-01T11:03:29.549Z,1.4
2023-05-01T11:06:30.145Z,1.7
2023-05-01T11:09:29.674Z,0.95
2023-05-01T11:12:29.630Z,1.8
2023-05-01T11:15:29.738Z,1.55
2023-05-01T11:18:29.589Z,2.05
2023-05-01T11:21:29.789Z,2.05
2023-05-01T11:24:29.849Z,1.65
2023-05-01T11:27:29.724Z,2.3
2023-05-01T11:30:29.737Z,2
2023-05-01T11:33:29.578Z,2.15
2023-05-01T11:36:29.725Z,2.4
2023-05-01T11:39:29.585Z,2.7
2023-05-01T11:42:29.990Z,1.85
2023-05-01T11:45:29.728Z,1.95
2023-05-01T11:48:29.642Z,1.85
2023-05-01T11:51:29.794Z,1.35
2023-05-01T11:54:29.726Z,1.6
2023-05-01T11:57:29.608Z,1.55
2023-05-01T12:00:29.987Z,1.2
2023-05-01T12:03:30.176Z,2
2023-05-01T12:06:29.737Z,1.8
2023-05-01T12:09:29.732Z,1.7
2023-05-01T12:12:29.762Z,2.3
2023-05-01T12:15:29.762Z,2.6
2023-05-01T12:18:32.091Z,2.25
2023-05-01T12:21:29.710Z,1.7
2023-05-01T12:24:29.691Z,2.85
2023-05-01T12:27:29.638Z,1.55
2023-05-01T12:30:29.704Z,1.9
2023-05-01T12:33:29.802Z,2.1
2023-05-01T12:36:29.713Z,2.05
2023-05-01T12:39:29.794Z,2
2023-05-01T12:42:29.666Z,1.95
2023-05-01T12:45:29.706Z,1.95
2023-05-01T12:48:29.780Z,2.35
2023-05-01T12:51:29.656Z,2.9
2023-05-01T12:54:29.905Z,2.8
2023-05-01T12:57:29.829Z,2.6
2023-05-01T13:00:29.722Z,2.1
2023-05-01T13:03:29.902Z,1.4
2023-05-01T13:06:29.887Z,1.65
2023-05-01T13:09:29.742Z,2.2
2023-05-01T13:12:29.789Z,1.75
2023-05-01T13:15:29.752Z,2.1
2023-05-01T13:18:29.854Z,1.95
2023-05-01T13:21:29.841Z,2.15
2023-05-01T13:24:29.740Z,2
2023-05-01T13:27:29.738Z,2.05
2023-05-01T13:30:29.693Z,1.9
2023-05-01T13:33:29.882Z,1.85
2023-05-01T13:36:29.841Z,1.4
2023-05-01T13:39:29.770Z,1.4
2023-05-01T13:42:29.805Z,1.35
2023-05-01T13:45:29.759Z,1.5
2023-05-01T13:48:29.764Z,1.65
2023-05-01T13:51:29.753Z,1.65
2023-05-01T13:54:29.708Z,1.55
2023-05-01T13:57:29.725Z,2.1
2023-05-01T14:00:29.777Z,2
2023-05-01T14:03:30.045Z,1.65
2023-05-01T14:06:30.072Z,1.65
2023-05-01T14:09:29.806Z,1.9
2023-05-01T14:12:29.904Z,1.7
2023-05-01T14:15:29.891Z,1.9
2023-05-01T14:18:29.742Z,1.5
2023-05-01T14:21:29.906Z,2.25
2023-05-01T14:24:29.934Z,1.45
2023-05-01T14:27:29.833Z,2.05
2023-05-01T14:30:29.879Z,2.5
2023-05-01T14:33:29.860Z,2.4
2023-05-01T14:36:29.831Z,1.95
2023-05-01T14:39:29.811Z,1.8
2023-05-01T14:42:29.829Z,2.65
2023-05-01T14:45:29.812Z,2.25
2023-05-01T14:48:29.842Z,2.3
2023-05-01T14:51:29.901Z,2.45
2023-05-01T14:54:29.986Z,1.15
2023-05-01T14:57:30.357Z,1.55
2023-05-01T15:00:29.957Z,0.7
2023-05-01T15:03:30.095Z,2
2023-05-01T15:06:30.004Z,1.75
2023-05-01T15:09:29.897Z,1.7
2023-05-01T15:12:29.916Z,2
2023-05-01T15:15:29.808Z,2.35
2023-05-01T15:18:29.888Z,1.8
2023-05-01T15:21:29.905Z,2
2023-05-01T15:24:29.897Z,2.05
2023-05-01T15:27:29.854Z,1.95
2023-05-01T15:30:29.926Z,1.95
2023-05-01T15:33:30.061Z,1.7
2023-05-01T15:36:29.902Z,1.95
2023-05-01T15:39:29.784Z,1.95
2023-05-01T15:42:30.256Z,2.4
2023-05-01T15:45:30.160Z,2.1
2023-05-01T15:48:30.094Z,1.7
2023-05-01T15:51:29.873Z,2.55
2023-05-01T15:54:29.937Z,1.7
2023-05-01T15:57:30.027Z,1.6
2023-05-01T16:00:29.843Z,1.9
2023-05-01T16:03:30.168Z,1.8
2023-05-01T16:06:30.037Z,2.35
2023-05-01T16:09:29.993Z,1.8
2023-05-01T16:12:30.038Z,2.2
2023-05-01T16:15:29.965Z,2.5
2023-05-01T16:18:30.114Z,2.15
2023-05-01T16:21:30.146Z,1.85
2023-05-01T16:24:30.174Z,1.5
2023-05-01T16:27:29.966Z,1.4
2023-05-01T16:30:30.794Z,2.3
2023-05-01T16:33:29.907Z,1.95
2023-05-01T16:36:29.988Z,2.5
2023-05-01T16:39:30.001Z,1.85
2023-05-01T16:42:29.965Z,1.8
2023-05-01T16:45:29.956Z,1.8
2023-05-01T16:48:29.884Z,1.15
2023-05-01T16:51:29.965Z,1.4
2023-05-01T16:54:30.002Z,1.3
2023-05-01T16:57:30.064Z,1.45
2023-05-01T17:00:29.982Z,1.1
2023-05-01T17:03:30.298Z,1.3
2023-05-01T17:06:30.267Z,1.05
2023-05-01T17:09:31.151Z,1.2
2023-05-01T17:12:29.895Z,1.4
2023-05-01T17:15:29.951Z,2.25
2023-05-01T17:18:30.020Z,1.95
2023-05-01T17:21:29.991Z,1.45
2023-05-01T17:24:30.032Z,1.15
2023-05-01T17:27:29.993Z,0.95
2023-05-01T17:30:29.986Z,1.2
2023-05-01T17:33:30.091Z,1.55
2023-05-01T17:36:30.190Z,0.9
2023-05-01T17:39:29.987Z,0.85
2023-05-01T17:42:30.055Z,0.55
2023-05-01T17:45:30.119Z,0.6
2023-05-01T17:48:30.166Z,0.45
2023-05-01T17:51:30.042Z,0.35
2023-05-01T17:54:30.036Z,0.4
2023-05-01T17:57:30.007Z,0.45
2023-05-01T18:00:30.774Z,0.5
2023-05-01T18:03:30.318Z,0.55
2023-05-01T18:06:30.145Z,0.75
2023-05-01T18:09:30.029Z,1.85
2023-05-01T18:12:30.048Z,1.75
2023-05-01T18:15:30.006Z,1.35
2023-05-01T18:18:30.108Z,1.3
2023-05-01T18:21:30.037Z,1.3
2023-05-01T18:24:30.176Z,1.05
2023-05-01T18:27:30.149Z,0.35
2023-05-01T18:30:30.381Z,0.25
2023-05-01T18:33:30.208Z,0.3
2023-05-01T18:36:30.019Z,0.15
2023-05-01T18:39:30.138Z,0.2
2023-05-01T18:42:30.051Z,0.2
2023-05-01T18:45:30.087Z,0.2
2023-05-01T18:48:30.119Z,0.2
2023-05-01T18:51:30.126Z,0.2
2023-05-01T18:54:30.000Z,0.2
2023-05-01T18:57:30.110Z,0.2
2023-05-01T19:00:30.098Z,0.15
2023-05-01T19:03:30.100Z,0.3
2023-05-01T19:06:30.252Z,0.15
2023-05-01T19:09:30.069Z,0.1
2023-05-01T19:12:30.124Z,0.1
2023-05-01T19:15:30.104Z,0.1
2023-05-01T19:18:30.090Z,0.1
2023-05-01T19:21:30.169Z,0.25
2023-05-01T19:24:30.084Z,0.1
2023-05-01T19:27:30.099Z,0.15
2023-05-01T19:30:30.036Z,0
2023-05-01T19:33:30.060Z,0
2023-05-01T19:36:30.087Z,0.1
2023-05-01T19:39:30.071Z,0.2
2023-05-01T19:42:30.028Z,0.1
2023-05-01T19:45:30.276Z,0.15
2023-05-01T19:48:30.177Z,0.1
2023-05-01T19:51:30.262Z,0
2023-05-01T19:54:30.485Z,0
2023-05-01T19:57:30.121Z,0.05
2023-05-01T20:00:30.171Z,0.15
2023-05-01T20:03:30.364Z,0
2023-05-01T20:06:30.260Z,0.05
2023-05-01T20:09:30.193Z,0
2023-05-01T20:12:30.245Z,0.2
2023-05-01T20:15:30.176Z,0.1
2023-05-01T20:18:30.234Z,0
2023-05-01T20:21:30.217Z,0
2023-05-01T20:24:30.156Z,0.1
2023-05-01T20:27:30.100Z,0.15
2023-05-01T20:30:30.193Z,0.2
2023-05-01T20:33:33.316Z,0.2
2023-05-01T20:36:30.298Z,0.15
2023-05-01T20:39:30.224Z,0.2
2023-05-01T20:42:30.225Z,0.1
2023-05-01T20:45:30.336Z,0.15
2023-05-01T20:48:30.294Z,0.1
2023-05-01T20:51:30.473Z,0.05
2023-05-01T20:54:30.104Z,0.75
2023-05-01T20:57:30.254Z,0.1
2023-05-01T21:00:30.158Z,0.15
2023-05-01T21:03:30.473Z,0.1
2023-05-01T21:06:30.315Z,0.1
2023-05-01T21:09:30.191Z,0
2023-05-01T21:12:30.280Z,0
2023-05-01T21:15:30.251Z,0.5
2023-05-01T21:18:30.265Z,0.9
2023-05-01T21:21:30.237Z,0.25
2023-05-01T21:24:30.292Z,0.2
2023-05-01T21:27:30.198Z,0.9
2023-05-01T21:30:30.282Z,0.55
2023-05-01T21:33:33.218Z,0.45
2023-05-01T21:36:30.312Z,0.85
2023-05-01T21:39:30.210Z,0.95
2023-05-01T21:42:30.238Z,1.5
2023-05-01T21:45:30.357Z,0.8
2023-05-01T21:48:30.249Z,0.8
2023-05-01T21:51:30.337Z,1.05
2023-05-01T21:54:30.282Z,0.6
2023-05-01T21:57:30.176Z,0.7
2023-05-01T22:00:30.363Z,0.35
2023-05-01T22:03:30.470Z,0.2
2023-05-01T22:06:30.341Z,0.95
2023-05-01T22:09:30.299Z,0.55
2023-05-01T22:12:30.354Z,0.5
2023-05-01T22:15:30.323Z,0.2
2023-05-01T22:18:30.365Z,0.45
2023-05-01T22:21:30.310Z,0.65
2023-05-01T22:24:30.254Z,0.45
2023-05-01T22:27:30.383Z,1.15
2023-05-01T22:30:30.325Z,0.75
2023-05-01T22:33:30.334Z,0.3
2023-05-01T22:36:30.343Z,0.25
2023-05-01T22:39:30.178Z,0.95
2023-05-01T22:42:30.309Z,0.9
2023-05-01T22:45:30.228Z,1.2
2023-05-01T22:48:30.307Z,0.55
2023-05-01T22:51:30.376Z,0.5
2023-05-01T22:54:30.433Z,0.85
2023-05-01T22:57:30.355Z,1.5
2023-05-01T23:00:30.357Z,0.55
2023-05-01T23:03:30.710Z,0.55
2023-05-01T23:06:30.392Z,0.25
2023-05-01T23:09:30.358Z,0.6
2023-05-01T23:12:30.231Z,0.35
2023-05-01T23:15:30.254Z,0.3
2023-05-01T23:18:30.361Z,0.2
2023-05-01T23:21:30.256Z,0.95
2023-05-01T23:24:30.344Z,0.8
2023-05-01T23:27:30.343Z,0.65
2023-05-01T23:30:30.246Z,0.3
2023-05-01T23:33:30.377Z,1.1
2023-05-01T23:36:30.362Z,1
2023-05-01T23:39:30.356Z,0.8
2023-05-01T23:42:30.357Z,0.8
2023-05-01T23:45:30.356Z,1
2023-05-01T23:48:30.346Z,0.6
2023-05-01T23:51:30.425Z,0.2
2023-05-01T23:54:30.341Z,0.3
2023-05-01T23:57:30.333Z,0.6
